VCBI/CMB METAR and TAF weather

Enter ICAO airport designator
Station Type Date Time Source
VCBI METAR 2024/04/15 09:10 UTC NOAA

VCBI 150910Z VRB04KT 9999 TS BKN016 FEW019CB 32/26 Q1008 NOSIG RMK CB N/SE/S/NW


Station Type Date Time Source
VCBI Decoded METAR 2024/04/15 09:10 UTC NOAA

Katunayake, Sri Lanka (VCBI) 07-10N 079-53E 8M
Apr 15, 2024 - 05:10 AM EDT / 2024.04.15 0910 UTC
Wind: Variable at 5 MPH (4 KT):0
Visibility: greater than 7 mile(s):0
Sky conditions: mostly cloudy
Weather: thunder; Cumulonimbus clouds observed
Temperature: 89 F (32 C)
Heat index: 102.9 F (39.4 C):1
Dew Point: 78 F (26 C)
Relative Humidity: 70%
Pressure (altimeter): 29.77 in. Hg (1008 hPa)
ob: VCBI 150910Z VRB04KT 9999 TS BKN016 FEW019CB 32/26 Q1008 NOSIG RMK CB N/SE/S/NW
cycle: 9

Station Type Date Time Source
VCBI TAF 2024/04/15 06:12 UTC NOAA